Aérodrome :
LOGIN :

S'inscrire | Disclaimer

   EN    FR    IT 

 










Légende :    VFR   VFR Marginal   IFR   IFR Intensif   IFR Très Intensif
Visi : 
Plafond : 
>= 8 km
>= 3000ft
5 à 8 km
1000 à 3000 ft
1500m à 5 km
500 à 1000 ft
800 à 1500m
200 à 500 ft
< 800m
< 200 ft
Symboles :   Orages  Brouillard  Fortes neiges  Fortes précipitations  Vent > 20 kt
SIGMETs :   Divers  Orages  Givrage  Turbulence  Onde Orograph.  Cendres Volcan.






- Altitude de l'aérodrome : 464 ft
- Code IATA : EVX


LFOE - Evreux

DERNIER METAR :
  • 211430Z AUTO 16012KT 6000 RA FEW010/// BKN017/// BKN023/// ///CB 08/06 Q0990 TEMPO 19020G35KT 2000 RA BKN010

METARs EXPIRÉS :
  • 211400Z AUTO 17011KT 9000 -RA BKN020/// BKN027/// BKN032/// ///TCU 07/06 Q0991 TEMPO 19020G35KT 2000 RA BKN010
  • 211330Z AUTO 17012KT 9999 -RA FEW019/// BKN024/// BKN034/// ///TCU 08/05 Q0992 TEMPO 19020G35KT 2000 RA BKN010
  • 211300Z AUTO 18011KT 9999 FEW039 BKN074 OVC092 08/05 Q0993 TEMPO 19020G35KT 2000 RA BKN010
  • 211230Z AUTO 19014KT CAVOK 08/05 Q0994 TEMPO 19020G35KT 2000 RA BKN010
  • 211200Z AUTO 19014KT 9999 FEW021 OVC100 07/05 Q0995 BECMG 19015G30KT 4000 -RA

TAF TAF LFOE
Valide du 20 à 15h jusqu'au 21 à 15h UTC


201400Z 2015/2115 19020G30KT CAVOK
TEMPO 2016/2020 19020G35KT
BECMG 2020/2022 19020G40KT 4000 RA OVC030
BECMG 2023/2024 27030G45KT 2000 RA
BECMG 2103/2105 20010G20KT 9999 NSW SCT040
BECMG 2114/2115 4000 -RA BKN020 OVC030



MET'MAP, la Météo Aéronautique d'un coup d'oeil ! - Copyright ORBIFLY Décembre 2007 - Disclaimer

ORBIFLY MET'MAP TEAM :

Programmation & Développement : Alexandra Zaïnal
Sur une idée originale de : Baudouin d'Aumeries
Assistance à la programmation : Marc-Olivier Méhu
Soutien technique & logistique : Manuel Goepfert

Contact : metmap@orbifly.com




SOURCES & CREDITS :

   NOAA